sensor_id;sensor_type;location;lat;lon;timestamp;P1;durP1;ratioP1;P2;durP2;ratioP2
19505;SDS011;9894;50.852;-0.140;2022-07-09T00:00:17;9.18;;;4.70;;
19505;SDS011;9894;50.852;-0.140;2022-07-09T00:02:43;8.20;;;4.80;;
19505;SDS011;9894;50.852;-0.140;2022-07-09T00:05:10;5.20;;;4.70;;
19505;SDS011;9894;50.852;-0.140;2022-07-09T00:07:37;5.07;;;4.65;;
19505;SDS011;9894;50.852;-0.140;2022-07-09T00:10:03;5.10;;;4.60;;
19505;SDS011;9894;50.852;-0.140;2022-07-09T00:12:30;5.65;;;5.05;;
19505;SDS011;9894;50.852;-0.140;2022-07-09T00:14:56;6.18;;;4.80;;
19505;SDS011;9894;50.852;-0.140;2022-07-09T00:17:22;5.55;;;4.93;;
19505;SDS011;9894;50.852;-0.140;2022-07-09T00:19:48;7.65;;;4.95;;
19505;SDS011;9894;50.852;-0.140;2022-07-09T00:22:14;4.97;;;4.40;;
19505;SDS011;9894;50.852;-0.140;2022-07-09T00:24:40;5.28;;;4.68;;
19505;SDS011;9894;50.852;-0.140;2022-07-09T00:27:06;7.88;;;5.13;;
19505;SDS011;9894;50.852;-0.140;2022-07-09T00:29:32;5.30;;;4.80;;
19505;SDS011;9894;50.852;-0.140;2022-07-09T00:31:59;6.88;;;5.13;;
19505;SDS011;9894;50.852;-0.140;2022-07-09T00:34:25;6.68;;;5.10;;
19505;SDS011;9894;50.852;-0.140;2022-07-09T00:36:51;5.38;;;4.88;;
19505;SDS011;9894;50.852;-0.140;2022-07-09T00:39:17;5.78;;;4.80;;
19505;SDS011;9894;50.852;-0.140;2022-07-09T00:41:43;5.88;;;4.55;;
19505;SDS011;9894;50.852;-0.140;2022-07-09T00:44:09;5.90;;;5.30;;
19505;SDS011;9894;50.852;-0.140;2022-07-09T00:46:35;5.65;;;4.85;;
19505;SDS011;9894;50.852;-0.140;2022-07-09T00:49:01;6.05;;;5.35;;
19505;SDS011;9894;50.852;-0.140;2022-07-09T00:51:29;5.78;;;5.10;;
19505;SDS011;9894;50.852;-0.140;2022-07-09T00:53:56;6.60;;;4.90;;
19505;SDS011;9894;50.852;-0.140;2022-07-09T00:56:22;5.45;;;4.90;;
19505;SDS011;9894;50.852;-0.140;2022-07-09T00:58:48;7.32;;;5.20;;
19505;SDS011;9894;50.852;-0.140;2022-07-09T01:01:15;5.28;;;4.72;;
19505;SDS011;9894;50.852;-0.140;2022-07-09T01:03:41;6.40;;;4.90;;
19505;SDS011;9894;50.852;-0.140;2022-07-09T01:06:07;6.47;;;5.13;;
19505;SDS011;9894;50.852;-0.140;2022-07-09T01:08:33;6.28;;;5.13;;
19505;SDS011;9894;50.852;-0.140;2022-07-09T01:11:00;6.18;;;5.32;;
19505;SDS011;9894;50.852;-0.140;2022-07-09T01:13:26;6.53;;;5.03;;
19505;SDS011;9894;50.852;-0.140;2022-07-09T01:15:52;6.00;;;5.40;;
19505;SDS011;9894;50.852;-0.140;2022-07-09T01:18:18;6.00;;;5.40;;
19505;SDS011;9894;50.852;-0.140;2022-07-09T01:20:44;7.03;;;5.40;;
19505;SDS011;9894;50.852;-0.140;2022-07-09T01:23:10;5.28;;;4.78;;
19505;SDS011;9894;50.852;-0.140;2022-07-09T01:25:41;5.78;;;5.10;;
19505;SDS011;9894;50.852;-0.140;2022-07-09T01:28:08;7.22;;;5.13;;
19505;SDS011;9894;50.852;-0.140;2022-07-09T01:30:35;5.30;;;4.85;;
19505;SDS011;9894;50.852;-0.140;2022-07-09T01:33:02;7.07;;;5.68;;
19505;SDS011;9894;50.852;-0.140;2022-07-09T01:35:28;5.80;;;5.20;;
19505;SDS011;9894;50.852;-0.140;2022-07-09T01:37:54;7.50;;;5.75;;
19505;SDS011;9894;50.852;-0.140;2022-07-09T01:40:21;7.10;;;5.10;;
19505;SDS011;9894;50.852;-0.140;2022-07-09T01:42:47;6.47;;;5.03;;
19505;SDS011;9894;50.852;-0.140;2022-07-09T01:45:13;6.88;;;4.90;;
19505;SDS011;9894;50.852;-0.140;2022-07-09T01:47:40;6.43;;;4.88;;
19505;SDS011;9894;50.852;-0.140;2022-07-09T01:50:06;10.25;;;5.10;;
19505;SDS011;9894;50.852;-0.140;2022-07-09T01:52:33;6.75;;;5.13;;
19505;SDS011;9894;50.852;-0.140;2022-07-09T01:54:59;6.93;;;5.20;;
19505;SDS011;9894;50.852;-0.140;2022-07-09T01:57:25;5.60;;;4.90;;
19505;SDS011;9894;50.852;-0.140;2022-07-09T01:59:52;6.63;;;5.20;;
19505;SDS011;9894;50.852;-0.140;2022-07-09T02:02:18;8.95;;;5.20;;
19505;SDS011;9894;50.852;-0.140;2022-07-09T02:04:44;8.32;;;5.22;;
19505;SDS011;9894;50.852;-0.140;2022-07-09T02:07:11;6.20;;;4.78;;
19505;SDS011;9894;50.852;-0.140;2022-07-09T02:09:37;5.65;;;5.07;;
19505;SDS011;9894;50.852;-0.140;2022-07-09T02:12:04;7.70;;;5.15;;
19505;SDS011;9894;50.852;-0.140;2022-07-09T02:14:30;5.47;;;4.93;;
19505;SDS011;9894;50.852;-0.140;2022-07-09T02:16:56;7.78;;;5.53;;
19505;SDS011;9894;50.852;-0.140;2022-07-09T02:19:22;5.70;;;4.75;;
19505;SDS011;9894;50.852;-0.140;2022-07-09T02:21:48;7.53;;;5.55;;
19505;SDS011;9894;50.852;-0.140;2022-07-09T02:24:15;6.45;;;4.70;;
19505;SDS011;9894;50.852;-0.140;2022-07-09T02:26:41;5.20;;;4.70;;
19505;SDS011;9894;50.852;-0.140;2022-07-09T02:29:07;6.18;;;5.07;;
19505;SDS011;9894;50.852;-0.140;2022-07-09T02:31:33;6.20;;;5.22;;
19505;SDS011;9894;50.852;-0.140;2022-07-09T02:33:59;5.70;;;4.78;;
19505;SDS011;9894;50.852;-0.140;2022-07-09T02:36:25;7.68;;;4.95;;
19505;SDS011;9894;50.852;-0.140;2022-07-09T02:38:51;5.65;;;4.70;;
19505;SDS011;9894;50.852;-0.140;2022-07-09T02:41:18;5.28;;;4.63;;
19505;SDS011;9894;50.852;-0.140;2022-07-09T02:43:44;6.72;;;4.72;;
19505;SDS011;9894;50.852;-0.140;2022-07-09T02:46:10;5.40;;;4.82;;
19505;SDS011;9894;50.852;-0.140;2022-07-09T02:48:36;5.20;;;4.70;;
19505;SDS011;9894;50.852;-0.140;2022-07-09T02:51:03;5.70;;;4.78;;
19505;SDS011;9894;50.852;-0.140;2022-07-09T02:53:29;5.85;;;5.20;;
19505;SDS011;9894;50.852;-0.140;2022-07-09T02:55:55;7.32;;;4.70;;
19505;SDS011;9894;50.852;-0.140;2022-07-09T02:58:21;6.00;;;5.05;;
19505;SDS011;9894;50.852;-0.140;2022-07-09T03:00:47;5.53;;;4.47;;
19505;SDS011;9894;50.852;-0.140;2022-07-09T03:03:14;5.55;;;4.75;;
19505;SDS011;9894;50.852;-0.140;2022-07-09T03:05:40;5.18;;;4.57;;
19505;SDS011;9894;50.852;-0.140;2022-07-09T03:08:06;5.88;;;5.10;;
19505;SDS011;9894;50.852;-0.140;2022-07-09T03:10:33;7.05;;;5.30;;
19505;SDS011;9894;50.852;-0.140;2022-07-09T03:13:00;7.25;;;5.00;;
19505;SDS011;9894;50.852;-0.140;2022-07-09T03:15:26;6.32;;;5.43;;
19505;SDS011;9894;50.852;-0.140;2022-07-09T03:17:52;6.60;;;5.10;;
19505;SDS011;9894;50.852;-0.140;2022-07-09T03:20:18;5.70;;;5.10;;
19505;SDS011;9894;50.852;-0.140;2022-07-09T03:22:44;7.18;;;5.35;;
19505;SDS011;9894;50.852;-0.140;2022-07-09T03:25:10;6.85;;;5.30;;
19505;SDS011;9894;50.852;-0.140;2022-07-09T03:27:36;5.55;;;5.00;;
19505;SDS011;9894;50.852;-0.140;2022-07-09T03:30:03;7.10;;;5.55;;
19505;SDS011;9894;50.852;-0.140;2022-07-09T03:32:30;6.05;;;5.25;;
19505;SDS011;9894;50.852;-0.140;2022-07-09T03:34:56;7.82;;;5.90;;
19505;SDS011;9894;50.852;-0.140;2022-07-09T03:37:22;7.25;;;5.70;;
19505;SDS011;9894;50.852;-0.140;2022-07-09T03:39:48;7.90;;;5.35;;
19505;SDS011;9894;50.852;-0.140;2022-07-09T03:42:14;6.07;;;5.47;;
19505;SDS011;9894;50.852;-0.140;2022-07-09T03:44:40;5.97;;;5.38;;
19505;SDS011;9894;50.852;-0.140;2022-07-09T03:47:07;5.95;;;5.22;;
19505;SDS011;9894;50.852;-0.140;2022-07-09T03:49:33;6.32;;;5.65;;
19505;SDS011;9894;50.852;-0.140;2022-07-09T03:51:59;8.77;;;5.57;;
19505;SDS011;9894;50.852;-0.140;2022-07-09T03:54:25;5.55;;;5.05;;
19505;SDS011;9894;50.852;-0.140;2022-07-09T03:56:51;7.07;;;5.63;;
19505;SDS011;9894;50.852;-0.140;2022-07-09T03:59:18;6.30;;;5.70;;
19505;SDS011;9894;50.852;-0.140;2022-07-09T04:01:44;5.93;;;5.25;;
19505;SDS011;9894;50.852;-0.140;2022-07-09T04:04:10;6.15;;;5.38;;
19505;SDS011;9894;50.852;-0.140;2022-07-09T04:06:36;8.18;;;5.35;;
19505;SDS011;9894;50.852;-0.140;2022-07-09T04:09:02;5.57;;;5.07;;
19505;SDS011;9894;50.852;-0.140;2022-07-09T04:11:32;5.80;;;5.20;;
19505;SDS011;9894;50.852;-0.140;2022-07-09T04:13:59;7.30;;;5.35;;
19505;SDS011;9894;50.852;-0.140;2022-07-09T04:16:26;5.15;;;4.65;;
19505;SDS011;9894;50.852;-0.140;2022-07-09T04:18:52;5.47;;;4.95;;
19505;SDS011;9894;50.852;-0.140;2022-07-09T04:21:18;5.90;;;5.35;;
19505;SDS011;9894;50.852;-0.140;2022-07-09T04:23:48;5.90;;;5.05;;
19505;SDS011;9894;50.852;-0.140;2022-07-09T04:26:14;6.35;;;5.28;;
19505;SDS011;9894;50.852;-0.140;2022-07-09T04:28:40;5.82;;;5.22;;
19505;SDS011;9894;50.852;-0.140;2022-07-09T04:31:06;6.57;;;5.78;;
19505;SDS011;9894;50.852;-0.140;2022-07-09T04:33:32;6.25;;;4.95;;
19505;SDS011;9894;50.852;-0.140;2022-07-09T04:35:58;6.25;;;5.65;;
19505;SDS011;9894;50.852;-0.140;2022-07-09T04:38:24;7.45;;;5.68;;
19505;SDS011;9894;50.852;-0.140;2022-07-09T04:40:51;6.38;;;5.25;;
19505;SDS011;9894;50.852;-0.140;2022-07-09T04:43:17;6.53;;;5.93;;
19505;SDS011;9894;50.852;-0.140;2022-07-09T04:45:43;7.07;;;6.38;;
19505;SDS011;9894;50.852;-0.140;2022-07-09T04:48:09;5.65;;;5.10;;
19505;SDS011;9894;50.852;-0.140;2022-07-09T04:50:35;7.03;;;5.40;;
19505;SDS011;9894;50.852;-0.140;2022-07-09T04:53:02;5.82;;;5.05;;
19505;SDS011;9894;50.852;-0.140;2022-07-09T04:55:28;6.10;;;5.00;;
19505;SDS011;9894;50.852;-0.140;2022-07-09T04:57:54;5.18;;;4.75;;
19505;SDS011;9894;50.852;-0.140;2022-07-09T05:00:20;5.40;;;4.90;;
19505;SDS011;9894;50.852;-0.140;2022-07-09T05:02:46;5.57;;;5.07;;
19505;SDS011;9894;50.852;-0.140;2022-07-09T05:05:12;5.40;;;4.85;;
19505;SDS011;9894;50.852;-0.140;2022-07-09T05:07:38;8.25;;;4.78;;
19505;SDS011;9894;50.852;-0.140;2022-07-09T05:10:05;5.43;;;4.93;;
19505;SDS011;9894;50.852;-0.140;2022-07-09T05:12:31;5.88;;;5.35;;
19505;SDS011;9894;50.852;-0.140;2022-07-09T05:14:57;6.38;;;5.70;;
19505;SDS011;9894;50.852;-0.140;2022-07-09T05:17:24;5.78;;;5.25;;
19505;SDS011;9894;50.852;-0.140;2022-07-09T05:19:50;5.85;;;5.25;;
19505;SDS011;9894;50.852;-0.140;2022-07-09T05:22:16;5.75;;;5.22;;
19505;SDS011;9894;50.852;-0.140;2022-07-09T05:24:42;5.93;;;5.43;;
19505;SDS011;9894;50.852;-0.140;2022-07-09T05:27:08;5.95;;;5.40;;
19505;SDS011;9894;50.852;-0.140;2022-07-09T05:29:37;6.15;;;5.40;;
19505;SDS011;9894;50.852;-0.140;2022-07-09T05:32:03;5.63;;;5.00;;
19505;SDS011;9894;50.852;-0.140;2022-07-09T05:34:30;7.20;;;5.03;;
19505;SDS011;9894;50.852;-0.140;2022-07-09T05:36:56;5.55;;;5.05;;
19505;SDS011;9894;50.852;-0.140;2022-07-09T05:39:23;6.80;;;4.85;;
19505;SDS011;9894;50.852;-0.140;2022-07-09T05:41:49;8.23;;;5.00;;
19505;SDS011;9894;50.852;-0.140;2022-07-09T05:44:15;5.95;;;5.35;;
19505;SDS011;9894;50.852;-0.140;2022-07-09T05:46:41;5.80;;;5.30;;
19505;SDS011;9894;50.852;-0.140;2022-07-09T05:49:07;5.28;;;4.78;;
19505;SDS011;9894;50.852;-0.140;2022-07-09T05:51:33;5.50;;;5.00;;
19505;SDS011;9894;50.852;-0.140;2022-07-09T05:54:00;5.10;;;4.60;;
19505;SDS011;9894;50.852;-0.140;2022-07-09T05:56:26;6.03;;;5.03;;
19505;SDS011;9894;50.852;-0.140;2022-07-09T05:58:52;4.63;;;4.20;;
19505;SDS011;9894;50.852;-0.140;2022-07-09T06:01:18;5.45;;;4.90;;
19505;SDS011;9894;50.852;-0.140;2022-07-09T06:03:44;4.82;;;4.13;;
19505;SDS011;9894;50.852;-0.140;2022-07-09T06:06:12;5.40;;;4.68;;
19505;SDS011;9894;50.852;-0.140;2022-07-09T06:08:38;4.35;;;3.95;;
19505;SDS011;9894;50.852;-0.140;2022-07-09T06:11:05;4.78;;;4.20;;
19505;SDS011;9894;50.852;-0.140;2022-07-09T06:13:31;4.97;;;4.47;;
19505;SDS011;9894;50.852;-0.140;2022-07-09T06:15:57;5.45;;;4.60;;
19505;SDS011;9894;50.852;-0.140;2022-07-09T06:18:23;5.03;;;4.30;;
19505;SDS011;9894;50.852;-0.140;2022-07-09T06:20:49;5.32;;;4.18;;
19505;SDS011;9894;50.852;-0.140;2022-07-09T06:23:15;5.35;;;4.30;;
19505;SDS011;9894;50.852;-0.140;2022-07-09T06:25:41;4.70;;;4.20;;
19505;SDS011;9894;50.852;-0.140;2022-07-09T06:28:07;4.78;;;4.20;;
19505;SDS011;9894;50.852;-0.140;2022-07-09T06:30:34;4.47;;;4.07;;
19505;SDS011;9894;50.852;-0.140;2022-07-09T06:33:01;5.82;;;4.80;;
19505;SDS011;9894;50.852;-0.140;2022-07-09T06:35:27;5.82;;;4.50;;
19505;SDS011;9894;50.852;-0.140;2022-07-09T06:37:53;5.13;;;4.40;;
19505;SDS011;9894;50.852;-0.140;2022-07-09T06:40:19;5.05;;;4.55;;
19505;SDS011;9894;50.852;-0.140;2022-07-09T06:42:45;5.55;;;4.68;;
19505;SDS011;9894;50.852;-0.140;2022-07-09T06:45:11;6.00;;;4.57;;
19505;SDS011;9894;50.852;-0.140;2022-07-09T06:47:40;5.75;;;5.10;;
19505;SDS011;9894;50.852;-0.140;2022-07-09T06:50:06;5.32;;;4.82;;
19505;SDS011;9894;50.852;-0.140;2022-07-09T06:52:32;9.88;;;5.10;;
19505;SDS011;9894;50.852;-0.140;2022-07-09T06:54:58;6.80;;;5.72;;
19505;SDS011;9894;50.852;-0.140;2022-07-09T06:57:25;6.93;;;6.30;;
19505;SDS011;9894;50.852;-0.140;2022-07-09T06:59:51;7.20;;;6.40;;
19505;SDS011;9894;50.852;-0.140;2022-07-09T07:02:18;7.93;;;7.18;;
19505;SDS011;9894;50.852;-0.140;2022-07-09T07:04:44;7.40;;;6.70;;
19505;SDS011;9894;50.852;-0.140;2022-07-09T07:07:10;7.90;;;7.07;;
19505;SDS011;9894;50.852;-0.140;2022-07-09T07:09:36;8.85;;;8.00;;
19505;SDS011;9894;50.852;-0.140;2022-07-09T07:12:02;8.52;;;7.82;;
19505;SDS011;9894;50.852;-0.140;2022-07-09T07:14:28;10.20;;;9.20;;
19505;SDS011;9894;50.852;-0.140;2022-07-09T07:16:54;7.93;;;7.28;;
19505;SDS011;9894;50.852;-0.140;2022-07-09T07:19:20;8.93;;;8.20;;
19505;SDS011;9894;50.852;-0.140;2022-07-09T07:21:47;9.32;;;8.52;;
19505;SDS011;9894;50.852;-0.140;2022-07-09T07:24:13;9.45;;;8.75;;
19505;SDS011;9894;50.852;-0.140;2022-07-09T07:26:39;10.00;;;9.10;;
19505;SDS011;9894;50.852;-0.140;2022-07-09T07:29:05;11.02;;;9.93;;
19505;SDS011;9894;50.852;-0.140;2022-07-09T07:31:31;10.77;;;9.88;;
19505;SDS011;9894;50.852;-0.140;2022-07-09T07:33:58;10.35;;;9.50;;
19505;SDS011;9894;50.852;-0.140;2022-07-09T07:36:25;10.57;;;9.77;;
19505;SDS011;9894;50.852;-0.140;2022-07-09T07:38:52;10.60;;;9.70;;
19505;SDS011;9894;50.852;-0.140;2022-07-09T07:41:18;11.30;;;10.40;;
19505;SDS011;9894;50.852;-0.140;2022-07-09T07:43:46;10.07;;;9.35;;
19505;SDS011;9894;50.852;-0.140;2022-07-09T07:46:12;12.40;;;11.35;;
19505;SDS011;9894;50.852;-0.140;2022-07-09T07:48:38;10.35;;;9.45;;
19505;SDS011;9894;50.852;-0.140;2022-07-09T07:51:06;11.00;;;10.20;;
19505;SDS011;9894;50.852;-0.140;2022-07-09T07:53:33;11.15;;;10.25;;
19505;SDS011;9894;50.852;-0.140;2022-07-09T07:56:03;11.98;;;10.80;;
19505;SDS011;9894;50.852;-0.140;2022-07-09T07:58:29;12.35;;;11.45;;
19505;SDS011;9894;50.852;-0.140;2022-07-09T08:00:55;11.80;;;10.80;;
19505;SDS011;9894;50.852;-0.140;2022-07-09T08:03:21;12.65;;;11.75;;
19505;SDS011;9894;50.852;-0.140;2022-07-09T08:05:47;9.90;;;9.10;;
19505;SDS011;9894;50.852;-0.140;2022-07-09T08:08:13;11.10;;;10.30;;
19505;SDS011;9894;50.852;-0.140;2022-07-09T08:10:39;12.40;;;11.27;;
19505;SDS011;9894;50.852;-0.140;2022-07-09T08:13:06;10.88;;;10.07;;
19505;SDS011;9894;50.852;-0.140;2022-07-09T08:15:32;11.50;;;10.60;;
19505;SDS011;9894;50.852;-0.140;2022-07-09T08:17:58;10.77;;;9.98;;
19505;SDS011;9894;50.852;-0.140;2022-07-09T08:20:24;11.15;;;10.25;;
19505;SDS011;9894;50.852;-0.140;2022-07-09T08:22:50;10.70;;;9.80;;
19505;SDS011;9894;50.852;-0.140;2022-07-09T08:25:16;10.48;;;9.65;;
19505;SDS011;9894;50.852;-0.140;2022-07-09T08:27:42;9.98;;;9.18;;
19505;SDS011;9894;50.852;-0.140;2022-07-09T08:30:08;10.30;;;9.50;;
19505;SDS011;9894;50.852;-0.140;2022-07-09T08:32:35;10.63;;;9.82;;
19505;SDS011;9894;50.852;-0.140;2022-07-09T08:35:02;9.50;;;8.70;;
19505;SDS011;9894;50.852;-0.140;2022-07-09T08:37:28;8.70;;;8.00;;
19505;SDS011;9894;50.852;-0.140;2022-07-09T08:39:54;8.10;;;7.50;;
19505;SDS011;9894;50.852;-0.140;2022-07-09T08:42:20;8.15;;;7.55;;
19505;SDS011;9894;50.852;-0.140;2022-07-09T08:44:47;9.40;;;8.60;;
19505;SDS011;9894;50.852;-0.140;2022-07-09T08:47:14;8.10;;;7.50;;
19505;SDS011;9894;50.852;-0.140;2022-07-09T08:49:41;6.70;;;6.20;;
19505;SDS011;9894;50.852;-0.140;2022-07-09T08:52:08;6.35;;;5.85;;
19505;SDS011;9894;50.852;-0.140;2022-07-09T08:54:35;6.20;;;5.70;;
19505;SDS011;9894;50.852;-0.140;2022-07-09T08:57:05;8.38;;;7.68;;
19505;SDS011;9894;50.852;-0.140;2022-07-09T08:59:32;7.88;;;7.25;;
19505;SDS011;9894;50.852;-0.140;2022-07-09T09:02:07;6.63;;;6.13;;
19505;SDS011;9894;50.852;-0.140;2022-07-09T09:04:35;5.50;;;5.10;;
19505;SDS011;9894;50.852;-0.140;2022-07-09T09:07:11;6.82;;;6.30;;
19505;SDS011;9894;50.852;-0.140;2022-07-09T09:09:37;6.68;;;6.18;;
19505;SDS011;9894;50.852;-0.140;2022-07-09T09:12:03;6.38;;;5.88;;
19505;SDS011;9894;50.852;-0.140;2022-07-09T09:14:30;6.00;;;5.60;;
19505;SDS011;9894;50.852;-0.140;2022-07-09T09:17:08;6.38;;;5.90;;
19505;SDS011;9894;50.852;-0.140;2022-07-09T09:19:37;6.18;;;5.68;;
19505;SDS011;9894;50.852;-0.140;2022-07-09T09:22:04;6.57;;;5.97;;
19505;SDS011;9894;50.852;-0.140;2022-07-09T09:24:30;6.10;;;5.60;;
19505;SDS011;9894;50.852;-0.140;2022-07-09T09:27:06;6.35;;;5.78;;
19505;SDS011;9894;50.852;-0.140;2022-07-09T09:29:32;7.30;;;6.70;;
19505;SDS011;9894;50.852;-0.140;2022-07-09T09:32:08;6.38;;;5.88;;
19505;SDS011;9894;50.852;-0.140;2022-07-09T09:34:34;5.80;;;5.40;;
19505;SDS011;9894;50.852;-0.140;2022-07-09T09:37:01;6.43;;;5.93;;
19505;SDS011;9894;50.852;-0.140;2022-07-09T09:39:27;6.03;;;5.63;;
19505;SDS011;9894;50.852;-0.140;2022-07-09T09:42:00;6.38;;;5.88;;
19505;SDS011;9894;50.852;-0.140;2022-07-09T09:44:28;5.70;;;5.30;;
19505;SDS011;9894;50.852;-0.140;2022-07-09T09:46:56;6.10;;;5.68;;
19505;SDS011;9894;50.852;-0.140;2022-07-09T09:49:22;6.10;;;5.70;;
19505;SDS011;9894;50.852;-0.140;2022-07-09T09:52:05;5.50;;;5.10;;
19505;SDS011;9894;50.852;-0.140;2022-07-09T09:54:32;5.50;;;5.10;;
19505;SDS011;9894;50.852;-0.140;2022-07-09T09:57:00;5.30;;;4.90;;
19505;SDS011;9894;50.852;-0.140;2022-07-09T09:59:30;6.60;;;6.10;;
19505;SDS011;9894;50.852;-0.140;2022-07-09T10:01:57;5.90;;;5.45;;
19505;SDS011;9894;50.852;-0.140;2022-07-09T10:04:23;5.30;;;4.90;;
19505;SDS011;9894;50.852;-0.140;2022-07-09T10:06:50;6.30;;;5.90;;
19505;SDS011;9894;50.852;-0.140;2022-07-09T10:09:16;5.70;;;5.30;;
19505;SDS011;9894;50.852;-0.140;2022-07-09T10:11:46;5.45;;;4.95;;
19505;SDS011;9894;50.852;-0.140;2022-07-09T10:16:54;6.15;;;5.38;;
19505;SDS011;9894;50.852;-0.140;2022-07-09T10:19:24;5.20;;;4.80;;
19505;SDS011;9894;50.852;-0.140;2022-07-09T10:21:54;5.50;;;5.10;;
19505;SDS011;9894;50.852;-0.140;2022-07-09T10:24:27;5.13;;;4.72;;
19505;SDS011;9894;50.852;-0.140;2022-07-09T10:29:30;6.25;;;5.80;;
19505;SDS011;9894;50.852;-0.140;2022-07-09T10:31:56;5.50;;;5.10;;
19505;SDS011;9894;50.852;-0.140;2022-07-09T10:36:58;6.30;;;5.80;;
19505;SDS011;9894;50.852;-0.140;2022-07-09T10:39:24;6.65;;;6.15;;
19505;SDS011;9894;50.852;-0.140;2022-07-09T10:44:26;6.03;;;5.50;;
19505;SDS011;9894;50.852;-0.140;2022-07-09T10:46:56;6.40;;;5.80;;
19505;SDS011;9894;50.852;-0.140;2022-07-09T10:49:24;5.40;;;5.00;;
19505;SDS011;9894;50.852;-0.140;2022-07-09T10:51:54;6.45;;;5.53;;
19505;SDS011;9894;50.852;-0.140;2022-07-09T10:54:21;5.95;;;5.45;;
19505;SDS011;9894;50.852;-0.140;2022-07-09T10:56:47;5.95;;;5.45;;
19505;SDS011;9894;50.852;-0.140;2022-07-09T10:59:16;5.90;;;5.40;;
19505;SDS011;9894;50.852;-0.140;2022-07-09T11:01:43;5.97;;;5.50;;
19505;SDS011;9894;50.852;-0.140;2022-07-09T11:04:09;6.80;;;6.20;;
19505;SDS011;9894;50.852;-0.140;2022-07-09T11:06:45;6.07;;;5.57;;
19505;SDS011;9894;50.852;-0.140;2022-07-09T11:09:12;5.32;;;4.90;;
19505;SDS011;9894;50.852;-0.140;2022-07-09T11:11:39;6.00;;;5.50;;
19505;SDS011;9894;50.852;-0.140;2022-07-09T11:14:07;6.15;;;5.57;;
19505;SDS011;9894;50.852;-0.140;2022-07-09T11:16:33;5.80;;;5.40;;
19505;SDS011;9894;50.852;-0.140;2022-07-09T11:18:59;5.68;;;5.18;;
19505;SDS011;9894;50.852;-0.140;2022-07-09T11:21:26;6.20;;;5.70;;
19505;SDS011;9894;50.852;-0.140;2022-07-09T11:23:52;5.93;;;5.43;;
19505;SDS011;9894;50.852;-0.140;2022-07-09T11:26:18;5.72;;;5.20;;
19505;SDS011;9894;50.852;-0.140;2022-07-09T11:28:45;5.40;;;4.90;;
19505;SDS011;9894;50.852;-0.140;2022-07-09T11:31:12;5.70;;;5.20;;
19505;SDS011;9894;50.852;-0.140;2022-07-09T11:33:38;6.55;;;6.00;;
19505;SDS011;9894;50.852;-0.140;2022-07-09T11:36:23;5.10;;;4.70;;
19505;SDS011;9894;50.852;-0.140;2022-07-09T11:38:50;5.68;;;5.18;;
19505;SDS011;9894;50.852;-0.140;2022-07-09T11:41:17;5.60;;;5.20;;
19505;SDS011;9894;50.852;-0.140;2022-07-09T11:43:49;5.25;;;4.85;;
19505;SDS011;9894;50.852;-0.140;2022-07-09T11:46:19;5.47;;;5.03;;
19505;SDS011;9894;50.852;-0.140;2022-07-09T11:48:49;5.68;;;5.22;;
19505;SDS011;9894;50.852;-0.140;2022-07-09T11:51:25;5.63;;;5.13;;
19505;SDS011;9894;50.852;-0.140;2022-07-09T11:53:52;6.05;;;5.57;;
19505;SDS011;9894;50.852;-0.140;2022-07-09T11:56:18;6.03;;;5.55;;
19505;SDS011;9894;50.852;-0.140;2022-07-09T11:58:50;5.90;;;5.40;;
19505;SDS011;9894;50.852;-0.140;2022-07-09T12:01:16;5.85;;;5.35;;
19505;SDS011;9894;50.852;-0.140;2022-07-09T12:03:49;6.78;;;5.90;;
19505;SDS011;9894;50.852;-0.140;2022-07-09T12:06:15;5.80;;;5.40;;
19505;SDS011;9894;50.852;-0.140;2022-07-09T12:08:42;5.95;;;5.40;;
19505;SDS011;9894;50.852;-0.140;2022-07-09T12:11:08;6.50;;;6.00;;
19505;SDS011;9894;50.852;-0.140;2022-07-09T12:13:34;6.35;;;5.78;;
19505;SDS011;9894;50.852;-0.140;2022-07-09T12:16:00;6.50;;;6.00;;
19505;SDS011;9894;50.852;-0.140;2022-07-09T12:18:26;5.30;;;4.90;;
19505;SDS011;9894;50.852;-0.140;2022-07-09T12:20:53;5.80;;;5.38;;
19505;SDS011;9894;50.852;-0.140;2022-07-09T12:23:19;5.43;;;5.03;;
19505;SDS011;9894;50.852;-0.140;2022-07-09T12:25:45;5.85;;;5.45;;
19505;SDS011;9894;50.852;-0.140;2022-07-09T12:28:12;5.40;;;5.00;;
19505;SDS011;9894;50.852;-0.140;2022-07-09T12:30:38;7.03;;;6.50;;
19505;SDS011;9894;50.852;-0.140;2022-07-09T12:33:04;6.90;;;6.30;;
19505;SDS011;9894;50.852;-0.140;2022-07-09T12:35:30;6.25;;;5.60;;
19505;SDS011;9894;50.852;-0.140;2022-07-09T12:37:56;5.50;;;5.00;;
19505;SDS011;9894;50.852;-0.140;2022-07-09T12:40:22;7.22;;;6.53;;
19505;SDS011;9894;50.852;-0.140;2022-07-09T12:42:49;6.90;;;6.30;;
19505;SDS011;9894;50.852;-0.140;2022-07-09T12:45:15;7.22;;;6.30;;
19505;SDS011;9894;50.852;-0.140;2022-07-09T12:47:41;5.88;;;5.40;;
19505;SDS011;9894;50.852;-0.140;2022-07-09T12:50:07;7.18;;;6.57;;
19505;SDS011;9894;50.852;-0.140;2022-07-09T12:52:34;5.65;;;5.25;;
19505;SDS011;9894;50.852;-0.140;2022-07-09T12:55:01;6.30;;;5.78;;
19505;SDS011;9894;50.852;-0.140;2022-07-09T12:57:27;5.78;;;5.38;;
19505;SDS011;9894;50.852;-0.140;2022-07-09T12:59:54;6.00;;;5.60;;
19505;SDS011;9894;50.852;-0.140;2022-07-09T13:02:20;7.53;;;6.30;;
19505;SDS011;9894;50.852;-0.140;2022-07-09T13:04:46;6.55;;;6.05;;
19505;SDS011;9894;50.852;-0.140;2022-07-09T13:07:12;6.18;;;5.78;;
19505;SDS011;9894;50.852;-0.140;2022-07-09T13:09:39;7.10;;;6.50;;
19505;SDS011;9894;50.852;-0.140;2022-07-09T13:12:05;5.68;;;5.20;;
19505;SDS011;9894;50.852;-0.140;2022-07-09T13:14:31;6.60;;;6.10;;
19505;SDS011;9894;50.852;-0.140;2022-07-09T13:16:57;6.40;;;5.80;;
19505;SDS011;9894;50.852;-0.140;2022-07-09T13:19:24;5.63;;;5.22;;
19505;SDS011;9894;50.852;-0.140;2022-07-09T13:21:50;6.10;;;5.60;;
19505;SDS011;9894;50.852;-0.140;2022-07-09T13:24:16;5.60;;;5.20;;
19505;SDS011;9894;50.852;-0.140;2022-07-09T13:26:42;5.78;;;5.28;;
19505;SDS011;9894;50.852;-0.140;2022-07-09T13:29:08;6.80;;;6.30;;
19505;SDS011;9894;50.852;-0.140;2022-07-09T13:31:34;6.07;;;5.57;;
19505;SDS011;9894;50.852;-0.140;2022-07-09T13:34:01;7.28;;;6.68;;
19505;SDS011;9894;50.852;-0.140;2022-07-09T13:36:27;6.47;;;5.97;;
19505;SDS011;9894;50.852;-0.140;2022-07-09T13:38:53;5.80;;;5.30;;
19505;SDS011;9894;50.852;-0.140;2022-07-09T13:41:19;6.10;;;5.60;;
19505;SDS011;9894;50.852;-0.140;2022-07-09T13:43:45;5.97;;;5.57;;
19505;SDS011;9894;50.852;-0.140;2022-07-09T13:46:12;6.32;;;5.82;;
19505;SDS011;9894;50.852;-0.140;2022-07-09T13:48:38;5.75;;;5.35;;
19505;SDS011;9894;50.852;-0.140;2022-07-09T13:51:04;5.85;;;5.35;;
19505;SDS011;9894;50.852;-0.140;2022-07-09T13:53:30;5.75;;;5.25;;
19505;SDS011;9894;50.852;-0.140;2022-07-09T13:55:57;5.82;;;5.40;;
19505;SDS011;9894;50.852;-0.140;2022-07-09T13:58:24;5.63;;;5.22;;
19505;SDS011;9894;50.852;-0.140;2022-07-09T14:00:50;5.70;;;5.30;;
19505;SDS011;9894;50.852;-0.140;2022-07-09T14:03:16;7.10;;;6.50;;
19505;SDS011;9894;50.852;-0.140;2022-07-09T14:05:43;6.15;;;5.65;;
19505;SDS011;9894;50.852;-0.140;2022-07-09T14:08:09;5.05;;;4.57;;
19505;SDS011;9894;50.852;-0.140;2022-07-09T14:10:35;5.90;;;5.40;;
19505;SDS011;9894;50.852;-0.140;2022-07-09T14:13:02;5.30;;;4.80;;
19505;SDS011;9894;50.852;-0.140;2022-07-09T14:15:29;5.88;;;5.38;;
19505;SDS011;9894;50.852;-0.140;2022-07-09T14:17:56;5.90;;;5.20;;
19505;SDS011;9894;50.852;-0.140;2022-07-09T14:20:23;5.45;;;5.05;;
19505;SDS011;9894;50.852;-0.140;2022-07-09T14:22:49;5.68;;;5.18;;
19505;SDS011;9894;50.852;-0.140;2022-07-09T14:25:15;5.80;;;5.40;;
19505;SDS011;9894;50.852;-0.140;2022-07-09T14:27:41;5.50;;;4.90;;
19505;SDS011;9894;50.852;-0.140;2022-07-09T14:30:07;6.65;;;6.05;;
19505;SDS011;9894;50.852;-0.140;2022-07-09T14:32:34;5.97;;;5.53;;
19505;SDS011;9894;50.852;-0.140;2022-07-09T14:35:00;5.60;;;5.10;;
19505;SDS011;9894;50.852;-0.140;2022-07-09T14:37:26;5.88;;;5.20;;
19505;SDS011;9894;50.852;-0.140;2022-07-09T14:39:53;6.22;;;5.72;;
19505;SDS011;9894;50.852;-0.140;2022-07-09T14:42:19;6.40;;;5.90;;
19505;SDS011;9894;50.852;-0.140;2022-07-09T14:44:47;6.30;;;5.80;;
19505;SDS011;9894;50.852;-0.140;2022-07-09T14:47:15;6.00;;;5.40;;
19505;SDS011;9894;50.852;-0.140;2022-07-09T14:49:41;6.82;;;6.30;;
19505;SDS011;9894;50.852;-0.140;2022-07-09T14:52:14;5.90;;;5.40;;